Time;durP1;ratioP1;P1;durP2;ratioP2;P2;SDS_P1;SDS_P2;PMS_P1;PMS_P2;Temp;Humidity;BMP_temperature;BMP_pressure;BME280_temperature;BME280_humidity;BME280_pressure;Samples;Min_cycle;Max_cycle;Signal;HPM_P1;HPM_P2
2022/02/02 00:00:36;;;;;;;38.65;6.30;;;7.70;99.90;;;8.48;100.00;100196.84;5033695;28;20080;-77
2022/02/02 00:03:10;;;;;;;41.85;6.97;;;7.80;99.90;;;8.49;100.00;100204.81;5031985;28;20377;-76
2022/02/02 00:08:14;;;;;;;36.17;6.32;;;7.80;99.90;;;8.59;100.00;100195.97;5033878;28;20029;-77
2022/02/02 00:16:08;;;;;;;40.63;6.68;;;7.90;99.90;;;8.59;100.00;100218.22;5034693;28;20033;-78
2022/02/02 00:23:48;;;;;;;38.15;6.60;;;7.90;99.90;;;8.50;100.00;100202.84;5036701;28;20156;-77
2022/02/02 00:26:23;;;;;;;29.73;6.40;;;7.90;99.90;;;8.60;100.00;100216.25;5037094;28;20021;-76
2022/02/02 00:28:53;;;;;;;29.73;6.20;;;7.90;99.90;;;8.58;100.00;100236.09;5036720;28;20025;-76
2022/02/02 00:31:25;;;;;;;42.20;6.32;;;7.90;99.90;;;8.56;100.00;100221.72;5037109;28;20567;-75
2022/02/02 00:33:57;;;;;;;35.83;6.50;;;7.90;99.90;;;8.59;100.00;100232.16;5036715;28;20436;-76
2022/02/02 00:36:30;;;;;;;31.40;6.22;;;7.90;99.90;;;8.60;99.99;100232.97;5034661;28;20033;-76
2022/02/02 00:38:56;;;;;;;40.70;6.72;;;7.90;99.90;;;8.65;99.16;100227.94;5036991;28;20052;-76
2022/02/02 00:41:21;;;;;;;38.33;7.45;;;8.00;99.90;;;8.60;97.78;100232.97;5036376;28;20488;-76
2022/02/02 00:43:58;;;;;;;31.35;5.93;;;8.00;99.90;;;8.50;98.67;100239.84;5036922;28;20037;-76
2022/02/02 00:46:26;;;;;;;32.78;6.20;;;7.90;99.90;;;8.51;98.01;100249.00;5036251;28;20163;-75
2022/02/02 00:49:05;;;;;;;30.95;6.72;;;7.90;99.90;;;8.43;98.99;100254.38;5035760;28;20080;-78
2022/02/02 00:51:46;;;;;;;33.65;5.97;;;7.80;99.90;;;8.41;98.17;100253.09;5036629;28;20025;-76
2022/02/02 00:54:20;;;;;;;27.77;5.95;;;7.70;99.90;;;8.50;96.80;100269.66;5036575;28;20030;-78
2022/02/02 00:56:48;;;;;;;32.00;5.65;;;7.80;99.90;;;8.49;96.44;100266.03;5036248;28;20025;-77
2022/02/02 00:59:22;;;;;;;43.30;6.50;;;7.80;99.90;;;8.50;96.19;100258.50;5036358;28;20036;-76
2022/02/02 01:01:50;;;;;;;34.83;6.15;;;7.80;99.90;;;8.41;95.79;100265.00;5036253;28;20025;-77
2022/02/02 01:04:16;;;;;;;32.95;6.50;;;7.80;99.90;;;8.41;95.54;100259.44;5034125;28;20060;-77
2022/02/02 01:06:51;;;;;;;30.67;6.25;;;7.80;99.90;;;8.44;95.70;100252.41;5037057;28;20112;-76
2022/02/02 01:17:23;;;;;;;38.75;6.57;;;7.70;99.90;;;8.37;96.39;100249.41;5036316;28;20040;-77
2022/02/02 01:20:17;;;;;;;31.92;5.85;;;7.70;99.90;;;8.40;96.45;100248.69;5034770;28;20124;-77
2022/02/02 01:28:12;;;;;;;31.50;5.43;;;7.70;99.90;;;8.39;95.28;100247.06;5034569;28;20029;-76
2022/02/02 01:30:39;;;;;;;29.85;5.28;;;7.70;99.90;;;8.37;95.35;100260.53;5036278;28;20033;-76
2022/02/02 01:33:05;;;;;;;32.75;5.15;;;7.70;99.90;;;8.35;96.29;100237.78;5036936;28;20113;-78
2022/02/02 01:35:31;;;;;;;31.55;5.82;;;7.70;99.90;;;8.37;95.89;100232.69;5046773;28;20033;-77
2022/02/02 01:37:57;;;;;;;24.40;5.50;;;7.60;99.90;;;8.37;96.95;100236.31;5052429;28;20036;-76
2022/02/02 01:40:31;;;;;;;30.88;5.30;;;7.60;99.90;;;8.32;97.37;100236.53;5035982;28;20033;-75
2022/02/02 01:43:02;;;;;;;40.05;7.05;;;7.60;99.90;;;8.27;98.47;100228.41;5033982;28;20512;-77
2022/02/02 01:45:37;;;;;;;35.55;7.03;;;7.60;99.90;;;8.32;98.28;100244.88;5035477;28;20038;-75
2022/02/02 01:51:47;;;;;;;34.65;6.15;;;7.60;99.90;;;8.29;99.50;100264.25;5036197;28;20034;-77
2022/02/02 01:56:11;;;;;;;31.65;5.38;;;7.50;99.90;;;7.97;100.00;100264.06;5035874;28;20079;-75
2022/02/02 02:01:22;;;;;;;27.20;5.10;;;7.10;99.90;;;7.34;100.00;100262.81;5035787;28;20515;-75
2022/02/02 02:03:48;;;;;;;37.80;5.82;;;6.80;99.90;;;7.27;100.00;100272.88;5035244;28;20117;-76
2022/02/02 02:06:15;;;;;;;26.00;5.75;;;6.60;99.90;;;7.34;100.00;100298.13;5035254;28;20388;-76
2022/02/02 02:08:42;;;;;;;38.33;5.43;;;6.60;99.90;;;7.35;100.00;100308.09;5050195;28;20531;-76
2022/02/02 02:11:14;;;;;;;27.33;6.32;;;6.60;99.90;;;7.27;100.00;100307.00;5035303;28;20029;-75
2022/02/02 02:16:25;;;;;;;38.75;7.38;;;6.50;99.90;;;7.24;100.00;100296.59;5035066;28;20515;-74
2022/02/02 02:18:52;;;;;;;45.85;7.18;;;6.50;99.90;;;7.42;100.00;100300.78;5035478;28;20034;-77
2022/02/02 02:21:21;;;;;;;41.22;7.90;;;6.60;99.90;;;7.44;100.00;100306.00;5034769;28;20036;-77
2022/02/02 02:23:49;;;;;;;45.33;7.47;;;6.70;99.90;;;7.60;100.00;100292.25;5034405;28;20034;-77
2022/02/02 02:26:24;;;;;;;40.58;8.15;;;6.80;99.90;;;7.64;100.00;100309.84;5032608;28;20029;-76
2022/02/02 02:31:33;;;;;;;45.63;8.23;;;7.00;99.90;;;7.70;100.00;100305.69;5033581;28;20390;-76
2022/02/02 02:55:58;;;;;;;31.88;6.57;;;7.20;99.90;;;7.88;100.00;100329.31;5033162;28;20063;-75
2022/02/02 03:01:19;;;;;;;43.00;7.78;;;7.20;99.90;;;7.84;100.00;100315.28;5035106;28;20063;-76
2022/02/02 03:31:55;;;;;;;51.08;7.78;;;7.20;99.90;;;7.80;100.00;100338.59;5032948;28;20028;-75
2022/02/02 03:34:56;;;;;;;46.78;7.13;;;7.10;99.90;;;7.83;100.00;100333.13;5032306;28;20057;-75
2022/02/02 03:56:29;;;;;;;47.97;7.38;;;7.20;99.90;;;7.85;100.00;100335.56;5050387;28;20119;-76
2022/02/02 04:06:55;;;;;;;44.40;6.75;;;7.20;99.90;;;7.92;100.00;100335.78;5062053;22;20535;-76
2022/02/02 04:09:26;;;;;;;41.58;7.30;;;7.20;99.90;;;7.95;100.00;100341.47;5038480;28;20425;-79
2022/02/02 04:12:05;;;;;;;41.35;8.43;;;7.20;99.90;;;7.94;100.00;100334.28;5044353;28;20040;-79
2022/02/02 04:58:07;;;;;;;47.63;7.20;;;7.10;99.90;;;7.92;100.00;100347.72;5018247;28;20089;-79
2022/02/02 05:06:16;;;;;;;40.90;7.80;;;7.20;99.90;;;7.86;100.00;100362.22;5016972;28;20101;-81
2022/02/02 05:09:14;;;;;;;26.48;4.93;;;7.20;99.90;;;7.64;100.00;100402.34;5016837;28;20025;-81
2022/02/02 05:11:53;;;;;;;17.48;3.47;;;7.00;99.90;;;7.06;100.00;100383.22;5017246;28;20022;-81
2022/02/02 05:17:04;;;;;;;15.32;2.45;;;6.00;99.90;;;6.39;100.00;100425.84;5021442;28;20477;-76
2022/02/02 05:53:24;;;;;;;22.65;5.28;;;6.10;99.90;;;6.83;100.00;100460.50;4951676;29;20051;-79
2022/02/02 05:55:53;;;;;;;23.65;4.45;;;6.10;99.90;;;6.90;100.00;100460.78;5005863;28;20042;-78
2022/02/02 05:58:40;;;;;;;27.65;5.10;;;6.20;99.90;;;6.84;100.00;100482.34;5018751;28;20099;-80
2022/02/02 06:01:14;;;;;;;24.98;4.43;;;6.10;99.90;;;6.87;100.00;100475.34;5017771;28;20030;-78
2022/02/02 06:04:00;;;;;;;22.88;4.00;;;6.10;99.90;;;6.80;100.00;100478.66;5017994;28;20053;-78
2022/02/02 06:06:31;;;;;;;20.38;4.95;;;6.00;99.90;;;6.82;100.00;100475.50;5018180;28;20640;-79
2022/02/02 06:09:01;;;;;;;24.67;4.85;;;6.10;99.90;;;6.80;100.00;100475.88;5017326;28;20026;-80
2022/02/02 06:11:27;;;;;;;26.35;5.07;;;6.10;99.90;;;6.77;100.00;100473.78;5017955;28;20381;-80
2022/02/02 06:13:57;;;;;;;30.98;6.05;;;6.10;99.90;;;6.81;100.00;100473.88;5017635;28;20109;-78
2022/02/02 06:16:28;;;;;;;28.48;3.90;;;6.10;99.90;;;6.85;100.00;100477.63;5016072;28;20069;-80
2022/02/02 06:19:00;;;;;;;29.88;4.10;;;6.10;99.90;;;6.88;100.00;100476.94;5017569;28;20033;-78
2022/02/02 06:21:36;;;;;;;24.30;4.00;;;6.10;99.90;;;6.82;100.00;100476.34;5016165;28;20064;-78
2022/02/02 06:24:17;;;;;;;24.38;4.35;;;6.10;99.90;;;6.90;100.00;100483.78;5016642;28;20026;-79
2022/02/02 06:26:49;;;;;;;31.65;4.60;;;6.10;99.90;;;6.92;100.00;100486.22;5039292;28;20142;-77
2022/02/02 06:29:18;;;;;;;28.55;4.15;;;6.20;99.90;;;6.93;100.00;100484.25;5058095;28;20108;-80
2022/02/02 06:31:44;;;;;;;23.05;4.32;;;6.20;99.90;;;6.94;100.00;100495.03;5072753;28;20459;-79
2022/02/02 06:34:14;;;;;;;27.45;4.50;;;6.20;99.90;;;6.98;100.00;100495.16;5056950;28;20024;-79
2022/02/02 06:36:42;;;;;;;27.52;4.63;;;6.30;99.90;;;7.08;100.00;100498.34;5057217;28;20029;-81
2022/02/02 06:39:12;;;;;;;17.90;4.25;;;6.30;99.90;;;7.08;100.00;100501.13;5056104;28;20096;-78
2022/02/02 06:41:40;;;;;;;29.17;5.43;;;6.30;99.90;;;7.05;100.00;100510.16;5058079;28;20020;-80
2022/02/02 06:44:07;;;;;;;28.92;4.95;;;6.30;99.90;;;7.03;100.00;100506.09;5057441;28;20468;-79
2022/02/02 06:46:39;;;;;;;20.73;4.18;;;6.30;99.90;;;7.09;100.00;100511.09;5057156;28;20396;-79
2022/02/02 06:49:05;;;;;;;29.02;4.50;;;6.30;99.90;;;7.09;100.00;100510.28;5056978;28;20024;-80
2022/02/02 06:51:41;;;;;;;24.17;4.40;;;6.30;99.90;;;7.08;100.00;100509.47;5056997;28;20021;-80
2022/02/02 06:54:30;;;;;;;30.92;4.95;;;6.30;99.90;;;7.15;100.00;100512.53;5057805;28;20480;-80
2022/02/02 06:57:16;;;;;;;26.33;4.80;;;6.40;99.90;;;7.14;100.00;100523.97;5073431;28;20025;-80
2022/02/02 07:13:56;;;;;;;21.30;4.07;;;6.30;99.90;;;7.11;100.00;100566.28;5058314;28;20032;-79
2022/02/02 07:16:32;;;;;;;17.48;3.08;;;6.30;99.90;;;7.17;100.00;100573.28;5057153;28;20021;-78
2022/02/02 07:22:16;;;;;;;20.23;3.25;;;6.30;99.90;;;7.16;100.00;100574.44;5058237;28;20036;-79
2022/02/02 07:27:40;;;;;;;22.45;3.88;;;6.30;99.90;;;7.00;100.00;100579.75;5057616;28;20055;-81
2022/02/02 07:30:24;;;;;;;27.42;3.40;;;6.30;99.90;;;7.13;100.00;100584.25;5056892;28;20021;-77
2022/02/02 07:36:17;;;;;;;20.95;3.50;;;6.40;99.90;;;7.20;100.00;100584.53;5039812;28;20061;-81
2022/02/02 07:39:02;;;;;;;14.32;3.45;;;6.50;99.90;;;7.18;99.91;100586.84;5070965;28;20068;-78
2022/02/02 07:41:36;;;;;;;19.52;3.40;;;6.40;99.90;;;7.20;99.92;100581.75;5056967;28;20067;-78
2022/02/02 07:44:24;;;;;;;20.23;3.45;;;6.40;99.90;;;7.22;100.00;100586.97;5071357;28;20506;-77
2022/02/02 07:46:55;;;;;;;17.25;3.53;;;6.50;99.90;;;7.21;100.00;100585.34;5056649;28;20029;-79
2022/02/02 07:49:33;;;;;;;18.77;3.35;;;6.50;99.90;;;7.19;100.00;100588.44;5056062;28;20017;-81
2022/02/02 07:52:12;;;;;;;17.73;3.85;;;6.50;99.90;;;7.17;100.00;100576.06;5055771;28;20506;-79
2022/02/02 07:54:42;;;;;;;19.05;3.42;;;6.40;99.90;;;7.23;100.00;100594.16;5055639;28;20043;-81
2022/02/02 07:57:16;;;;;;;21.92;4.47;;;6.50;99.90;;;7.18;100.00;100599.91;5072828;28;20029;-79
2022/02/02 07:59:58;;;;;;;20.52;2.85;;;6.40;99.90;;;7.12;100.00;100599.31;5057460;28;20036;-81
2022/02/02 08:05:18;;;;;;;23.50;3.63;;;6.40;99.90;;;7.02;100.00;100607.19;5058318;28;20040;-79
2022/02/02 08:07:59;;;;;;;16.48;3.72;;;6.40;99.90;;;7.09;100.00;100601.94;5072694;28;20128;-79
2022/02/02 08:10:27;;;;;;;23.02;4.97;;;6.40;99.90;;;7.06;100.00;100610.94;5056435;28;20223;-77
2022/02/02 08:12:57;;;;;;;28.92;6.28;;;6.30;99.90;;;7.05;100.00;100621.22;5056098;28;20172;-80
2022/02/02 08:15:27;;;;;;;21.85;3.67;;;6.30;99.90;;;7.09;100.00;100622.19;5055949;28;20121;-78
2022/02/02 08:17:55;;;;;;;29.40;4.05;;;6.30;99.90;;;7.11;100.00;100627.41;5056186;28;20100;-76
2022/02/02 08:20:23;;;;;;;21.13;3.45;;;6.30;99.90;;;7.05;100.00;100628.75;5054374;28;20082;-79
2022/02/02 08:22:49;;;;;;;21.92;4.28;;;6.30;99.90;;;7.07;100.00;100646.69;5054433;28;20376;-81
2022/02/02 08:25:25;;;;;;;23.58;4.28;;;6.30;99.90;;;7.02;100.00;100633.00;5053623;28;20029;-78
2022/02/02 08:27:54;;;;;;;21.88;3.50;;;6.30;99.90;;;7.08;100.00;100642.78;5016751;28;20504;-79
2022/02/02 08:30:23;;;;;;;22.92;3.70;;;6.30;99.90;;;7.03;100.00;100669.94;5015009;28;20056;-79
2022/02/02 08:33:05;;;;;;;24.70;4.72;;;6.30;99.90;;;7.02;100.00;100671.06;5016107;28;20022;-78
2022/02/02 08:35:43;;;;;;;22.50;4.00;;;6.20;99.90;;;6.90;100.00;100669.78;5017522;28;20040;-82
2022/02/02 08:40:42;;;;;;;23.88;3.58;;;6.10;99.90;;;6.96;100.00;100678.78;5022289;28;20125;-78
2022/02/02 08:43:16;;;;;;;25.38;4.38;;;6.10;99.90;;;7.03;100.00;100686.59;5021659;28;20033;-79
2022/02/02 08:45:45;;;;;;;24.67;4.47;;;6.20;99.90;;;7.26;100.00;100693.47;5020737;28;20445;-79
2022/02/02 08:48:17;;;;;;;31.27;5.55;;;6.30;99.90;;;7.23;100.00;100692.19;5019302;28;20022;-81
2022/02/02 08:50:53;;;;;;;28.90;4.95;;;6.40;99.90;;;7.28;100.00;100697.56;5020687;28;20021;-79
2022/02/02 08:56:19;;;;;;;23.33;4.18;;;6.50;99.90;;;7.38;100.00;100708.28;5019232;28;20050;-81
2022/02/02 08:58:59;;;;;;;25.92;6.20;;;6.50;99.90;;;7.36;100.00;100704.22;5022073;28;20030;-82
2022/02/02 09:01:29;;;;;;;29.92;5.43;;;6.50;99.90;;;7.33;100.00;100716.00;5028885;28;20045;-83
2022/02/02 09:06:40;;;;;;;25.33;4.60;;;6.50;99.90;;;7.51;100.00;100700.06;5022477;28;20032;-79
2022/02/02 09:09:11;;;;;;;31.60;4.88;;;6.60;99.90;;;7.96;100.00;100715.75;5018445;28;20034;-79
2022/02/02 09:21:08;;;;;;;21.23;4.40;;;7.30;99.90;;;8.05;100.00;100717.66;5021533;28;20037;-81
2022/02/02 09:25:26;;;;;;;25.13;4.28;;;7.50;99.90;;;8.39;97.74;100728.50;5021311;28;20026;-78
2022/02/02 09:35:54;;;;;;;28.58;5.63;;;7.60;99.90;;;8.34;97.45;100729.56;5058816;28;20058;-78
2022/02/02 09:38:22;;;;;;;22.45;4.50;;;7.60;99.90;;;8.42;99.13;100734.22;5058893;28;20039;-81
2022/02/02 09:43:30;;;;;;;35.92;5.78;;;7.60;99.90;;;8.36;97.51;100746.72;5058662;28;20025;-77
2022/02/02 09:46:05;;;;;;;31.17;5.00;;;7.60;99.90;;;8.72;96.09;100746.03;5058923;28;20088;-78
2022/02/02 09:48:48;;;;;;;25.80;5.35;;;7.80;99.90;;;8.86;94.48;100748.53;5057818;28;20028;-80
2022/02/02 09:51:22;;;;;;;25.17;4.55;;;7.90;99.90;;;8.98;93.94;100754.13;5058623;28;20071;-79
2022/02/02 09:59:02;;;;;;;29.92;5.00;;;8.60;99.90;;;9.57;88.36;100756.50;5059098;28;20103;-79
2022/02/02 10:13:26;;;;;;;28.20;4.82;;;8.90;99.90;;;9.87;84.41;100772.63;5057392;28;20112;-80
2022/02/02 10:15:55;;;;;;;23.73;4.63;;;9.00;99.90;;;9.54;84.92;100763.59;5072373;28;20484;-79
2022/02/02 10:18:36;;;;;;;30.30;4.40;;;8.90;99.90;;;9.54;86.50;100783.09;5072505;28;20033;-79
2022/02/02 10:21:06;;;;;;;20.00;5.38;;;8.70;99.90;;;9.72;84.36;100778.94;5071574;28;20025;-79
2022/02/02 10:23:36;;;;;;;26.75;3.95;;;8.90;99.90;;;9.81;84.54;100789.97;5056975;28;20500;-82
2022/02/02 10:26:22;;;;;;;23.45;4.65;;;9.00;99.90;;;9.65;83.94;100787.06;5050619;28;20041;-78
2022/02/02 10:28:51;;;;;;;27.30;5.07;;;8.90;99.90;;;9.57;85.45;100781.63;5037470;28;20029;-80
2022/02/02 10:31:21;;;;;;;22.30;4.78;;;8.80;99.90;;;9.33;85.69;100787.97;5036506;28;20048;-79
2022/02/02 10:33:50;;;;;;;29.92;5.60;;;8.60;99.90;;;9.32;86.57;100789.13;5034967;28;20397;-79
2022/02/02 10:39:16;;;;;;;20.67;4.07;;;8.60;99.90;;;9.62;87.36;100792.53;5037603;28;20042;-78
2022/02/02 10:41:55;;;;;;;31.70;5.38;;;8.80;99.90;;;9.98;84.13;100796.13;5036526;28;20064;-80
2022/02/02 10:44:39;;;;;;;27.85;5.38;;;9.10;99.90;;;9.83;84.84;100798.78;5036269;28;20112;-79
2022/02/02 10:47:22;;;;;;;24.20;4.45;;;9.00;99.90;;;9.70;84.71;100806.34;5036896;28;20025;-80
2022/02/02 10:50:01;;;;;;;16.70;3.80;;;8.90;99.90;;;9.85;82.07;100802.88;5037192;28;20554;-79
2022/02/02 11:06:43;;;;;;;19.13;3.50;;;9.90;99.90;;;11.02;74.05;100810.00;5037134;28;20507;-79
2022/02/02 11:09:16;;;;;;;22.08;3.30;;;10.20;99.90;;;10.89;75.24;100811.22;5036011;28;20125;-81
2022/02/02 11:11:51;;;;;;;21.95;3.53;;;10.10;99.90;;;10.99;74.32;100810.72;5036150;28;20079;-79
2022/02/02 11:14:45;;;;;;;14.82;3.63;;;10.10;99.90;;;10.49;76.27;100814.06;5036731;28;20049;-82
2022/02/02 11:17:29;;;;;;;18.10;4.03;;;9.80;99.90;;;10.29;77.28;100812.25;5052520;28;20033;-79
2022/02/02 11:20:04;;;;;;;18.67;2.92;;;9.50;99.90;;;10.00;78.37;100810.53;5034463;28;20523;-80
2022/02/02 11:22:46;;;;;;;16.00;3.85;;;9.30;99.90;;;9.93;80.28;100810.28;5045249;28;20104;-81
2022/02/02 11:25:11;;;;;;;18.80;4.07;;;9.10;99.90;;;9.85;79.73;100822.41;5056734;28;20060;-81
2022/02/02 11:27:45;;;;;;;26.08;4.25;;;9.10;99.90;;;10.05;78.50;100834.56;5037868;28;20044;-83
2022/02/02 11:30:23;;;;;;;24.95;5.10;;;9.20;99.90;;;9.91;76.89;100832.16;5037598;28;20484;-80
2022/02/02 11:32:55;;;;;;;28.15;7.63;;;9.20;99.90;;;10.05;78.93;100835.38;5039366;28;20037;-80
2022/02/02 11:38:21;;;;;;;16.30;5.93;;;9.30;99.90;;;10.14;78.08;100845.66;5039856;28;20044;-81
2022/02/02 11:41:13;;;;;;;23.42;4.20;;;9.30;99.90;;;10.24;78.06;100839.59;5038088;28;20056;-81
2022/02/02 11:43:54;;;;;;;19.10;2.97;;;9.40;99.90;;;10.23;76.85;100841.59;5057156;28;20056;-81
2022/02/02 11:50:03;;;;;;;22.17;5.75;;;9.50;99.90;;;10.72;76.73;100841.47;5038965;28;20064;-80
2022/02/02 11:52:49;;;;;;;13.98;3.47;;;9.70;99.90;;;10.26;76.33;100846.47;5037137;28;20033;-81
2022/02/02 11:55:17;;;;;;;14.80;3.25;;;9.50;99.90;;;10.30;78.00;100844.59;5037529;28;20036;-80
2022/02/02 11:58:15;;;;;;;18.83;4.00;;;9.40;99.90;;;10.49;76.00;100841.19;5052032;28;20034;-81
2022/02/02 12:01:05;;;;;;;14.65;3.30;;;9.60;99.90;;;10.50;77.46;100848.38;5037423;28;20128;-80
2022/02/02 12:06:56;;;;;;;19.17;3.63;;;9.50;99.90;;;9.99;76.17;100835.97;5038700;28;20052;-79
2022/02/02 12:09:54;;;;;;;16.05;2.90;;;9.30;99.90;;;9.99;77.74;100833.19;5037225;28;20025;-80
2022/02/02 12:57:11;;;;;;;18.00;3.67;;;8.80;99.90;;;9.78;77.22;100860.41;5058585;28;20507;-79
2022/02/02 13:02:20;;;;;;;13.35;3.20;;;9.00;99.90;;;9.97;78.14;100869.00;5060264;28;20118;-82
2022/02/02 13:04:56;;;;;;;16.27;3.03;;;9.10;99.90;;;9.94;76.68;100851.00;5061074;28;20082;-83
2022/02/02 13:07:27;;;;;;;14.68;3.17;;;9.10;99.90;;;9.84;77.63;100865.41;5060071;28;20036;-80
2022/02/02 13:09:56;;;;;;;17.73;3.28;;;9.10;99.90;;;9.93;78.45;100865.28;5057480;28;20033;-83
2022/02/02 13:12:53;;;;;;;20.38;3.00;;;9.10;99.90;;;10.16;77.25;100866.47;5057850;28;20044;-81
2022/02/02 13:15:44;;;;;;;14.70;3.80;;;9.30;99.90;;;10.68;74.98;100865.69;5065868;28;20025;-82
2022/02/02 13:21:27;;;;;;;17.13;3.25;;;9.80;99.90;;;10.12;76.15;100851.56;5006299;28;20027;-83
2022/02/02 13:24:22;;;;;;;16.23;3.33;;;9.50;99.90;;;9.89;76.83;100853.19;5060151;28;20055;-80
2022/02/02 13:27:11;;;;;;;15.82;2.97;;;9.20;99.90;;;9.91;77.50;100862.84;5067843;28;20020;-83
2022/02/02 13:29:53;;;;;;;18.00;3.72;;;9.10;99.90;;;10.01;77.18;100854.03;5069865;28;20334;-81
2022/02/02 13:32:41;;;;;;;13.95;3.22;;;9.20;99.90;;;10.02;76.56;100865.97;5071063;28;20039;-82
2022/02/02 13:54:31;;;;;;;21.92;3.25;;;9.90;99.90;;;10.91;75.75;100887.16;5057155;28;20029;-82
2022/02/02 13:57:27;;;;;;;19.13;4.10;;;10.00;99.90;;;10.66;75.75;100891.16;5057856;28;20021;-81
2022/02/02 14:32:07;;;;;;;15.20;3.42;;;9.80;99.90;;;10.61;73.79;100905.38;5035250;28;20087;-80
2022/02/02 14:34:33;;;;;;;15.65;2.78;;;9.70;99.90;;;10.65;73.16;100903.53;5038193;28;20034;-79
2022/02/02 14:36:59;;;;;;;9.35;2.60;;;9.70;99.90;;;10.63;74.52;100899.47;5037753;28;20037;-80
2022/02/02 14:39:42;;;;;;;19.00;3.42;;;9.70;99.90;;;10.58;73.98;100900.50;5035845;28;20036;-80
2022/02/02 14:42:17;;;;;;;13.07;2.97;;;9.70;99.90;;;10.54;74.36;100905.16;5033306;28;20022;-79
2022/02/02 14:44:44;;;;;;;15.70;2.67;;;9.60;99.90;;;10.54;74.31;100905.16;5035179;28;20438;-80
2022/02/02 14:47:15;;;;;;;15.48;3.38;;;9.70;99.90;;;10.68;74.85;100902.81;5035887;28;20026;-79
2022/02/02 14:49:53;;;;;;;17.92;3.35;;;9.70;99.90;;;10.65;74.75;100914.69;5034553;28;20527;-81
2022/02/02 14:52:33;;;;;;;16.98;2.90;;;9.70;99.90;;;10.62;74.68;100901.44;5035320;28;20515;-80
2022/02/02 15:07:16;;;;;;;14.93;3.03;;;10.00;99.90;;;11.17;72.79;100911.03;5022325;28;20030;-79
2022/02/02 15:28:13;;;;;;;19.80;3.80;;;9.90;99.90;;;10.67;72.12;100945.88;5054115;28;20039;-78
2022/02/02 15:30:53;;;;;;;17.98;3.10;;;9.80;99.90;;;10.58;73.54;100950.78;5054372;28;20077;-80
2022/02/02 15:33:28;;;;;;;12.05;3.45;;;9.80;99.90;;;10.44;73.42;100953.09;5053753;28;20522;-79
2022/02/02 15:36:15;;;;;;;11.68;2.80;;;9.60;99.90;;;10.40;75.11;100960.56;5053844;28;20032;-79
2022/02/02 15:38:47;;;;;;;17.00;3.70;;;9.50;99.90;;;10.32;74.43;100959.53;5052841;28;20040;-77
2022/02/02 15:41:20;;;;;;;13.25;3.80;;;9.40;99.90;;;10.17;74.67;100960.22;5053831;28;20102;-77
2022/02/02 15:55:02;;;;;;;15.32;4.07;;;8.80;99.90;;;9.54;77.31;100950.41;5053653;28;20427;-78
2022/02/02 16:03:08;;;;;;;14.85;2.72;;;8.50;99.90;;;9.36;77.85;100960.09;5054751;28;20112;-81
2022/02/02 16:05:50;;;;;;;14.38;2.72;;;8.50;99.90;;;9.25;78.31;100958.88;5053944;28;20037;-76
2022/02/02 16:08:21;;;;;;;19.00;3.42;;;8.40;99.90;;;9.16;79.02;100955.38;5068418;28;20399;-78
2022/02/02 16:11:15;;;;;;;13.35;3.10;;;8.30;99.90;;;9.20;78.94;100962.72;5068670;28;20036;-82
2022/02/02 16:13:51;;;;;;;11.95;3.53;;;8.30;99.90;;;9.12;79.49;100962.81;5059440;28;20029;-80
2022/02/02 16:19:22;;;;;;;12.13;3.40;;;8.10;99.90;;;8.89;81.40;100968.69;5054056;28;20086;-79
2022/02/02 16:33:19;;;;;;;20.63;3.10;;;7.60;99.90;;;8.17;85.42;100974.50;5033872;28;20033;-79
2022/02/02 16:35:55;;;;;;;19.35;3.30;;;7.40;99.90;;;7.95;87.02;100983.94;5034026;28;20025;-79
2022/02/02 16:38:24;;;;;;;16.92;3.33;;;7.10;99.90;;;7.85;87.39;100994.59;5032359;28;20029;-80
2022/02/02 16:40:53;;;;;;;11.82;3.38;;;7.00;99.90;;;7.68;88.63;100995.44;5033908;28;20033;-81
2022/02/02 16:43:22;;;;;;;13.70;2.88;;;6.90;99.90;;;7.57;89.44;101010.03;5034101;28;20069;-81
2022/02/02 16:45:53;;;;;;;17.08;3.08;;;6.80;99.90;;;7.50;90.33;101006.94;5033697;28;20455;-79
2022/02/02 16:48:24;;;;;;;14.63;2.95;;;6.70;99.90;;;7.46;90.96;101008.72;5034344;28;20565;-78
2022/02/02 16:50:54;;;;;;;16.15;3.60;;;6.60;99.90;;;7.44;91.55;101006.28;5034770;28;20116;-79
2022/02/02 16:53:33;;;;;;;19.17;3.95;;;6.60;99.90;;;7.39;91.99;101007.25;5032762;28;20026;-79
2022/02/02 16:56:10;;;;;;;14.13;3.65;;;6.60;99.90;;;7.37;92.26;101011.50;5033875;28;20041;-79
2022/02/02 17:35:41;;;;;;;23.55;3.72;;;6.00;99.90;;;6.68;96.21;101008.69;5052401;28;20040;-81
2022/02/02 17:40:35;;;;;;;17.92;3.85;;;5.80;99.90;;;6.50;97.45;101009.78;5051256;28;19967;-80
2022/02/02 18:03:27;;;;;;;24.15;4.68;;;5.40;99.90;;;6.04;100.00;101040.75;5055869;28;20029;-78
2022/02/02 18:20:55;;;;;;;28.10;6.70;;;5.10;99.90;;;5.95;100.00;101028.81;5056316;28;20036;-78
2022/02/02 18:28:49;;;;;;;22.50;6.10;;;5.30;99.90;;;5.94;100.00;101021.63;5036793;28;20029;-80
2022/02/02 19:03:29;;;;;;;26.25;8.18;;;5.50;99.90;;;6.19;100.00;101025.66;5040747;28;20042;-80
2022/02/02 19:56:52;;;;;;;33.35;7.40;;;5.50;99.90;;;6.22;100.00;101020.31;5013605;28;20043;-79
2022/02/02 20:11:41;;;;;;;25.25;6.38;;;5.60;99.90;;;6.39;100.00;101027.84;5013380;28;20022;-78
2022/02/02 20:14:13;;;;;;;29.75;6.55;;;5.60;99.90;;;6.39;100.00;101029.84;5029544;28;20121;-80
2022/02/02 20:16:42;;;;;;;22.05;6.22;;;5.60;99.90;;;6.38;100.00;101023.47;5011815;28;20034;-78
2022/02/02 20:19:10;;;;;;;21.17;7.10;;;5.60;99.90;;;6.39;100.00;101019.53;5013316;28;20026;-78
2022/02/02 20:21:45;;;;;;;29.60;7.28;;;5.60;99.90;;;6.36;100.00;101034.03;5013468;28;20108;-79
2022/02/02 20:24:12;;;;;;;23.75;6.97;;;5.60;99.90;;;6.39;100.00;101025.06;5013033;28;20030;-78
2022/02/02 20:26:37;;;;;;;21.67;6.32;;;5.70;99.90;;;6.51;100.00;101024.47;5034403;28;20134;-79
2022/02/02 20:29:04;;;;;;;28.10;7.80;;;5.70;99.90;;;6.59;100.00;101027.28;5052861;28;20028;-78
2022/02/02 20:31:36;;;;;;;27.45;7.47;;;5.80;99.90;;;6.67;100.00;101026.50;5052603;28;20029;-77
2022/02/02 20:34:06;;;;;;;20.45;7.22;;;5.90;99.90;;;6.74;100.00;101026.81;5055687;28;20025;-78
2022/02/02 20:36:33;;;;;;;32.45;8.02;;;6.00;99.90;;;6.83;100.00;101030.44;5055417;28;20109;-80
2022/02/02 20:39:09;;;;;;;30.05;8.02;;;6.10;99.90;;;6.92;100.00;101037.97;5052199;28;20107;-79
2022/02/02 20:41:37;;;;;;;27.38;7.43;;;6.10;99.90;;;6.95;100.00;101024.25;5071815;28;20029;-78
2022/02/02 20:44:11;;;;;;;28.27;7.30;;;6.20;99.90;;;7.02;100.00;101024.59;5056236;28;20057;-79
2022/02/02 21:00:10;;;;;;;28.25;8.55;;;6.30;99.90;;;7.05;100.00;101028.66;5052326;28;20457;-78
2022/02/02 21:08:59;;;;;;;30.13;8.98;;;6.50;99.90;;;7.30;100.00;101039.78;5055642;28;20545;-80
2022/02/02 21:14:09;;;;;;;28.55;9.02;;;6.60;99.90;;;7.33;100.00;101047.47;5054849;28;20040;-79
2022/02/02 21:16:38;;;;;;;25.02;9.23;;;6.60;99.90;;;7.39;100.00;101042.56;5053993;28;20340;-81
2022/02/02 21:19:08;;;;;;;31.65;9.48;;;6.70;99.90;;;7.39;100.00;101037.81;5053555;28;20036;-80
2022/02/02 21:21:47;;;;;;;27.80;8.57;;;6.60;99.90;;;7.50;100.00;101043.88;5055272;28;20021;-80
2022/02/02 21:29:42;;;;;;;24.27;9.82;;;6.80;99.90;;;7.71;100.00;101044.81;5035011;28;20082;-79
2022/02/02 21:32:09;;;;;;;31.83;11.73;;;6.80;99.90;;;7.76;100.00;101043.84;5034260;28;20040;-79
2022/02/02 21:34:38;;;;;;;29.40;11.60;;;6.90;99.90;;;7.82;100.00;101043.34;5034925;28;20031;-80
2022/02/02 21:37:06;;;;;;;37.83;12.07;;;7.00;99.90;;;7.86;100.00;101038.75;5034780;28;20487;-80
2022/02/02 21:39:36;;;;;;;35.38;11.85;;;7.00;99.90;;;7.94;100.00;101042.66;5034959;28;20026;-79
2022/02/02 21:42:03;;;;;;;32.45;13.07;;;7.10;99.90;;;7.95;100.00;101044.31;5035404;28;20374;-79
2022/02/02 21:44:29;;;;;;;33.63;12.40;;;7.10;99.90;;;7.96;100.00;101043.16;5033637;28;20030;-79
2022/02/02 21:46:56;;;;;;;37.22;12.93;;;7.10;99.90;;;7.98;100.00;101043.63;5042136;28;20010;-79
2022/02/02 21:49:24;;;;;;;30.48;12.07;;;7.10;99.90;;;8.00;100.00;101043.28;5052868;28;20078;-81
2022/02/02 21:52:02;;;;;;;37.42;13.77;;;7.10;99.90;;;7.99;100.00;101041.69;5053142;28;20044;-78
2022/02/02 21:54:30;;;;;;;33.17;13.00;;;7.20;99.90;;;8.02;100.00;101044.63;5040363;28;20033;-79